This is the latest recevied weather packets stored in our database for station/object KE0LFX. If no packets are shown the sender has not sent any weather packets the latest 10 day(s).
| Time | Temp. | Humidity | Pressure | Rain* | Wind** | Luminosity | Snow |
|---|---|---|---|---|---|---|---|
| 1777756902 | 15.56° C | 35% | 1021.4 hPa | 0 mm | - | 462 W/m² | - |
| 1777756597 | 16.11° C | 33% | 1021.4 hPa | 0 mm | - | 462 W/m² | - |
| 1777756295 | 15.56° C | 36% | 1021.4 hPa | 0 mm | - | 501 W/m² | - |
| 1777755992 | 15.56° C | 34% | 1021.6 hPa | 0 mm | - | 526 W/m² | - |
| 1777755689 | 15.56° C | 34% | 1021.7 hPa | 0 mm | - | 551 W/m² | - |
| 1777755386 | 15.56° C | 34% | 1021.7 hPa | 0 mm | - | 560 W/m² | - |
| 1777755083 | 15.56° C | 36% | 1021.8 hPa | 0 mm | - | 551 W/m² | - |
| 1777754780 | 16.11° C | 34% | 1021.9 hPa | 0 mm | - | 551 W/m² | - |
| 1777754472 | 15° C | 33% | 1021.9 hPa | 0 mm | - | 572 W/m² | - |
| 1777754169 | 15.56° C | 35% | 1022.1 hPa | 0 mm | - | 606 W/m² | - |
| 1777753866 | 15.56° C | 33% | 1022.1 hPa | 0 mm | - | 642 W/m² | - |
| 1777753561 | 15.56° C | 34% | 1022.2 hPa | 0 mm | - | 631 W/m² | - |
| 1777753259 | 15.56° C | 36% | 1022.2 hPa | 0 mm | - | 633 W/m² | - |
| 1777752950 | 15° C | 36% | 1022.1 hPa | 0 mm | - | 617 W/m² | - |
| 1777752647 | 15° C | 36% | 1022.2 hPa | 0 mm | - | 634 W/m² | - |
| 1777752342 | 15° C | 34% | 1022.5 hPa | 0 mm | - | 643 W/m² | - |
| 1777752041 | 15° C | 35% | 1022.6 hPa | 0 mm | - | 638 W/m² | - |
| 1777751737 | 15° C | 34% | 1022.8 hPa | 0 mm | - | 650 W/m² | - |
| 1777751428 | 15° C | 33% | 1022.5 hPa | 0 mm | - | 645 W/m² | - |
| 1777751125 | 15° C | 33% | 1022.5 hPa | 0 mm | - | 678 W/m² | - |
| 1777750820 | 15° C | 33% | 1022.6 hPa | 0 mm | - | 678 W/m² | - |
| 1777750518 | 15° C | 35% | 1022.7 hPa | 0 mm | - | 677 W/m² | - |
| 1777750215 | 15° C | 35% | 1022.3 hPa | 0 mm | - | 83 W/m² | - |
| 1777749911 | 15° C | 33% | 1022.8 hPa | 0 mm | - | 95 W/m² | - |
| 1777749609 | 14.44° C | 33% | 1023 hPa | 0 mm | - | 81 W/m² | - |
* Rain latest hour (hover to see other rain measurements)
** Current wind speed in m/s (hover to see current wind gust speed)